createdAt,value
2023-02-26T00:00:47.211Z,22.02
2023-02-26T00:05:50.652Z,22.05
2023-02-26T00:10:54.752Z,22.06
2023-02-26T00:16:01.837Z,22.04
2023-02-26T00:21:05.323Z,22.02
2023-02-26T00:26:08.051Z,22.02
2023-02-26T00:31:13.292Z,22.02
2023-02-26T00:36:22.588Z,22.02
2023-02-26T00:41:26.191Z,22.01
2023-02-26T00:46:39.917Z,22.00
2023-02-26T00:51:49.682Z,21.98
2023-02-26T00:56:54.103Z,21.96
2023-02-26T01:01:58.205Z,21.95
2023-02-26T01:07:01.561Z,21.96
2023-02-26T01:12:08.411Z,21.92
2023-02-26T01:17:19.711Z,21.89
2023-02-26T01:22:27.133Z,21.80
2023-02-26T01:27:30.419Z,21.72
2023-02-26T01:32:44.081Z,21.65
2023-02-26T01:37:54.866Z,21.64
2023-02-26T01:43:04.390Z,21.56
2023-02-26T01:48:19.671Z,21.49
2023-02-26T01:53:24.513Z,21.51
2023-02-26T01:58:31.355Z,21.49
2023-02-26T02:03:40.644Z,21.44
2023-02-26T02:08:44.254Z,21.43
2023-02-26T02:14:01.308Z,21.41
2023-02-26T02:19:19.702Z,21.38
2023-02-26T02:24:36.115Z,21.36
2023-02-26T02:30:04.505Z,21.32
2023-02-26T02:35:16.684Z,21.30
2023-02-26T02:40:23.668Z,21.29
2023-02-26T02:45:32.614Z,21.25
2023-02-26T02:50:42.680Z,21.23
2023-02-26T02:55:51.954Z,21.21
2023-02-26T03:01:01.636Z,21.17
2023-02-26T03:06:06.143Z,21.14
2023-02-26T03:11:09.728Z,21.11
2023-02-26T03:16:41.129Z,21.05
2023-02-26T03:21:52.572Z,21.04
2023-02-26T03:27:19.682Z,21.00
2023-02-26T03:32:28.839Z,20.98
2023-02-26T03:37:37.748Z,20.96
2023-02-26T03:42:47.433Z,20.92
2023-02-26T03:47:54.134Z,20.90
2023-02-26T03:53:02.132Z,20.85
2023-02-26T03:58:14.256Z,20.80
2023-02-26T04:03:53.562Z,20.74
2023-02-26T04:08:59.074Z,20.69
2023-02-26T04:14:02.827Z,20.73
2023-02-26T04:19:08.707Z,20.69
2023-02-26T04:24:13.808Z,20.74
2023-02-26T04:29:16.753Z,20.77
2023-02-26T04:34:19.792Z,20.78
2023-02-26T04:39:24.333Z,20.79
2023-02-26T04:44:27.384Z,20.80
2023-02-26T04:49:30.465Z,20.79
2023-02-26T04:54:34.588Z,20.81
2023-02-26T04:59:38.669Z,20.78
2023-02-26T05:04:42.575Z,20.83
2023-02-26T05:09:46.794Z,20.86
2023-02-26T05:14:49.707Z,20.88
2023-02-26T05:19:52.686Z,20.91
2023-02-26T05:24:57.168Z,20.94
2023-02-26T05:29:59.961Z,20.96
2023-02-26T05:35:02.827Z,20.99
2023-02-26T05:40:10.843Z,21.00
2023-02-26T05:45:13.795Z,21.00
2023-02-26T05:50:16.625Z,20.99
2023-02-26T05:55:21.180Z,20.99
2023-02-26T06:00:23.971Z,20.91
2023-02-26T06:05:26.809Z,20.88
2023-02-26T06:10:31.021Z,20.83
2023-02-26T06:15:33.816Z,20.81
2023-02-26T06:20:37.103Z,20.77
2023-02-26T06:25:41.319Z,20.75
2023-02-26T06:30:44.094Z,20.76
2023-02-26T06:35:47.025Z,20.75
2023-02-26T06:40:51.231Z,20.72
2023-02-26T06:45:54.126Z,20.71
2023-02-26T06:50:57.033Z,20.73
2023-02-26T06:56:01.108Z,20.71
2023-02-26T07:01:05.515Z,20.70
2023-02-26T07:06:25.924Z,20.70
2023-02-26T07:11:31.402Z,20.68
2023-02-26T07:16:34.314Z,20.66
2023-02-26T07:21:37.077Z,20.65
2023-02-26T07:26:41.223Z,20.65
2023-02-26T07:31:45.416Z,20.65
2023-02-26T07:36:48.256Z,20.64
2023-02-26T07:41:52.396Z,20.60
2023-02-26T07:46:57.901Z,20.58
2023-02-26T07:52:00.884Z,20.55
2023-02-26T07:57:05.787Z,20.51
2023-02-26T08:02:08.799Z,15.59
2023-02-26T08:07:11.681Z,13.34
2023-02-26T08:12:15.910Z,16.02
2023-02-26T08:17:18.839Z,18.38
2023-02-26T08:22:23.678Z,19.17
2023-02-26T08:27:28.101Z,19.56
2023-02-26T08:32:30.928Z,19.82
2023-02-26T08:37:33.986Z,20.07
2023-02-26T08:42:38.699Z,20.31
2023-02-26T08:47:55.606Z,20.41
2023-02-26T08:52:59.977Z,20.56
2023-02-26T08:58:04.507Z,20.66
2023-02-26T09:03:07.446Z,20.73
2023-02-26T09:08:11.486Z,20.81
2023-02-26T09:13:15.817Z,20.87
2023-02-26T09:18:18.655Z,20.93
2023-02-26T09:23:21.442Z,20.98
2023-02-26T09:28:27.088Z,21.03
2023-02-26T09:33:29.920Z,21.06
2023-02-26T09:38:32.708Z,21.11
2023-02-26T09:44:13.594Z,21.17
2023-02-26T09:49:35.808Z,21.21
2023-02-26T09:54:45.664Z,21.24
2023-02-26T09:59:48.996Z,21.28
2023-02-26T10:05:06.411Z,21.34
2023-02-26T10:10:20.393Z,21.43
2023-02-26T10:15:26.857Z,21.49
2023-02-26T10:20:36.721Z,21.57
2023-02-26T10:25:45.265Z,21.68
2023-02-26T10:30:55.437Z,21.73
2023-02-26T10:36:05.622Z,21.78
2023-02-26T10:41:14.588Z,21.85
2023-02-26T10:46:26.725Z,21.89
2023-02-26T10:51:36.129Z,21.94
2023-02-26T10:56:39.043Z,22.02
2023-02-26T11:01:42.083Z,22.06
2023-02-26T11:06:50.855Z,22.06
2023-02-26T11:11:55.332Z,22.08
2023-02-26T11:17:00.644Z,22.09
2023-02-26T11:22:09.616Z,22.15
2023-02-26T11:27:15.648Z,22.15
2023-02-26T11:32:20.950Z,22.13
2023-02-26T11:37:28.729Z,22.17
2023-02-26T11:47:36.005Z,22.18
2023-02-26T11:52:45.277Z,22.12
2023-02-26T11:57:53.997Z,22.14
2023-02-26T12:03:02.067Z,22.14
2023-02-26T12:08:17.771Z,22.14
2023-02-26T12:13:27.654Z,21.25
2023-02-26T12:18:45.563Z,20.16
2023-02-26T12:24:11.943Z,20.46
2023-02-26T12:29:32.559Z,21.26
2023-02-26T12:34:55.300Z,21.60
2023-02-26T12:40:16.812Z,21.68
2023-02-26T12:45:40.241Z,21.70
2023-02-26T12:50:59.557Z,21.77
2023-02-26T12:56:21.864Z,21.84
2023-02-26T13:01:43.375Z,21.86
2023-02-26T13:07:02.158Z,21.92
2023-02-26T13:12:19.113Z,21.93
2023-02-26T13:17:29.078Z,21.91
2023-02-26T13:22:34.988Z,21.95
2023-02-26T13:27:40.571Z,22.00
2023-02-26T13:32:45.347Z,22.03
2023-02-26T13:37:52.185Z,22.06
2023-02-26T13:43:07.199Z,22.11
2023-02-26T13:48:18.385Z,22.09
2023-02-26T13:53:55.283Z,22.17
2023-02-26T13:59:05.594Z,22.29
2023-02-26T14:04:24.768Z,22.32
2023-02-26T14:09:55.404Z,22.33
2023-02-26T14:15:28.718Z,22.30
2023-02-26T14:20:36.387Z,22.44
2023-02-26T14:25:42.830Z,22.51
2023-02-26T14:30:51.163Z,22.44
2023-02-26T14:35:55.625Z,22.40
2023-02-26T14:41:04.230Z,22.50
2023-02-26T14:46:10.608Z,22.44
2023-02-26T14:51:26.414Z,22.45
2023-02-26T14:56:52.070Z,22.43
2023-02-26T15:02:12.710Z,22.42
2023-02-26T15:07:36.449Z,22.42
2023-02-26T15:12:55.601Z,22.39
2023-02-26T15:18:18.301Z,22.42
2023-02-26T15:23:37.241Z,22.38
2023-02-26T15:28:42.105Z,22.38
2023-02-26T15:33:49.282Z,22.36
2023-02-26T15:38:58.574Z,22.36
2023-02-26T15:44:05.442Z,22.31
2023-02-26T15:49:13.457Z,22.31
2023-02-26T15:54:20.184Z,22.35
2023-02-26T15:59:28.241Z,21.87
2023-02-26T16:04:32.461Z,22.29
2023-02-26T16:09:36.800Z,22.36
2023-02-26T16:14:41.809Z,22.48
2023-02-26T16:19:49.756Z,22.51
2023-02-26T16:24:57.049Z,22.49
2023-02-26T16:30:02.123Z,22.49
2023-02-26T16:35:16.804Z,22.49
2023-02-26T16:40:25.327Z,22.55
2023-02-26T16:45:49.487Z,22.54
2023-02-26T16:51:00.713Z,22.53
2023-02-26T16:56:05.557Z,22.53
2023-02-26T17:01:14.255Z,22.51
2023-02-26T17:06:20.518Z,22.45
2023-02-26T17:11:28.019Z,22.42
2023-02-26T17:16:30.974Z,22.40
2023-02-26T17:21:37.258Z,22.38
2023-02-26T17:26:40.057Z,22.33
2023-02-26T17:31:43.702Z,22.26
2023-02-26T17:36:48.433Z,22.27
2023-02-26T17:41:51.332Z,22.21
2023-02-26T17:46:54.293Z,22.13
2023-02-26T17:51:58.403Z,22.08
2023-02-26T17:57:01.503Z,22.07
2023-02-26T18:02:17.352Z,22.08
2023-02-26T18:07:22.971Z,22.12
2023-02-26T18:12:25.966Z,22.19
2023-02-26T18:17:31.108Z,22.22
2023-02-26T18:22:36.379Z,22.23
2023-02-26T18:27:39.251Z,22.17
2023-02-26T18:32:42.147Z,22.30
2023-02-26T18:37:47.339Z,22.33
2023-02-26T18:42:50.415Z,22.33
2023-02-26T18:47:54.302Z,22.26
2023-02-26T18:52:58.581Z,22.33
2023-02-26T18:58:01.383Z,22.36
2023-02-26T19:03:04.616Z,22.39
2023-02-26T19:08:09.053Z,22.36
2023-02-26T19:13:12.098Z,22.31
2023-02-26T19:18:14.901Z,22.32
2023-02-26T19:23:19.820Z,22.37
2023-02-26T19:28:22.626Z,22.36
2023-02-26T19:33:25.732Z,22.37
2023-02-26T19:38:30.082Z,22.37
2023-02-26T19:43:32.999Z,22.36
2023-02-26T19:48:35.839Z,22.37
2023-02-26T19:53:40.140Z,22.32
2023-02-26T19:58:43.643Z,22.30
2023-02-26T20:03:49.010Z,22.28
2023-02-26T20:08:53.476Z,22.27
2023-02-26T20:13:56.484Z,22.32
2023-02-26T20:18:59.908Z,22.29
2023-02-26T20:24:05.139Z,22.27
2023-02-26T20:29:08.650Z,22.30
2023-02-26T20:34:11.378Z,22.35
2023-02-26T20:39:15.815Z,22.35
2023-02-26T20:44:19.259Z,22.35
2023-02-26T20:49:22.272Z,22.32
2023-02-26T20:54:26.699Z,22.36
2023-02-26T20:59:29.860Z,22.39
2023-02-26T21:04:32.750Z,22.38
2023-02-26T21:09:36.955Z,22.40
2023-02-26T21:14:39.851Z,22.42
2023-02-26T21:19:42.685Z,22.40
2023-02-26T21:24:47.198Z,22.37
2023-02-26T21:29:49.933Z,22.27
2023-02-26T21:34:52.835Z,22.19
2023-02-26T21:39:57.381Z,22.29
2023-02-26T21:45:00.505Z,22.33
2023-02-26T21:50:03.321Z,22.31
2023-02-26T21:55:08.265Z,22.27
2023-02-26T22:00:12.244Z,22.27
2023-02-26T22:05:15.492Z,22.22
2023-02-26T22:10:20.124Z,22.17
2023-02-26T22:15:23.153Z,22.18
2023-02-26T22:20:26.001Z,22.05
2023-02-26T22:25:31.056Z,22.02
2023-02-26T22:30:33.925Z,22.00
2023-02-26T22:35:36.705Z,21.98
2023-02-26T22:40:41.084Z,21.95
2023-02-26T22:45:43.887Z,21.91
2023-02-26T22:50:46.628Z,21.96
2023-02-26T22:55:50.770Z,21.96
2023-02-26T23:00:59.568Z,21.99
2023-02-26T23:06:02.370Z,21.99
2023-02-26T23:11:07.907Z,21.98
2023-02-26T23:16:12.224Z,21.94
2023-02-26T23:21:16.400Z,21.88
2023-02-26T23:26:20.510Z,21.82
2023-02-26T23:31:23.475Z,21.77
2023-02-26T23:36:26.432Z,21.68
2023-02-26T23:41:30.657Z,21.61
2023-02-26T23:46:33.518Z,21.55
2023-02-26T23:51:38.321Z,21.51
2023-02-26T23:56:42.868Z,21.46
